Aviation Digital Data Service (ADDS)

Output produced by METARs form (1014 UTC 25 January 2015)
found at http://www.aviationweather.gov/adds/metars/
 
KSEG 250953Z AUTO 27005KT 10SM OVC028 03/M02 A2966 RMK AO2 SLP048 T00331017
KSEG 250853Z AUTO 21004KT 10SM OVC027 03/M02 A2965 RMK AO2 SLP043 T00281022 51015
KSEG 250753Z AUTO 26006KT 10SM BKN029 OVC060 02/M03 A2964 RMK AO2 SLP039 T00221028
KSEG 250653Z AUTO 28007KT 10SM FEW030 SCT065 02/M03 A2963 RMK AO2 SLP035 T00221033
KSEG 250627Z AUTO 28010G16KT 10SM FEW029 BKN065 02/M03 A2961 RMK AO2 T00171033
KSEG 250553Z AUTO 28006G16KT 10SM OVC026 02/M03 A2960 RMK AO2 SLP027 T00221033 10022 20011 53008
KSEG 250453Z AUTO 28007KT 10SM OVC027 02/M04 A2959 RMK AO2 SLP024 T00171039 400501006
KSEG 250353Z AUTO 29008KT 10SM OVC028 02/M04 A2959 RMK AO2 SLP023 T00171039
KSEG 250253Z AUTO 28006KT 10SM OVC027 01/M04 A2958 RMK AO2 SLP020 T00111044 51019
KSEG 250153Z AUTO 28007G22KT 10SM OVC029 01/M04 A2956 RMK AO2 SLP014 T00111044
KSEG 250129Z AUTO 28007KT 10SM OVC029 01/M04 A2955 RMK AO2 T00111044
KSEG 250053Z AUTO 29008KT 10SM BKN034 OVC070 02/M05 A2955 RMK AO2 SLP009 T00171050
KSEG 242353Z AUTO 28005KT 10SM BKN047 OVC075 02/M04 A2952 RMK AO2 SLP000 T00171044 10050 20011 53032
KSEG 242253Z AUTO 27008G15KT 10SM BKN075 03/M05 A2948 RMK AO2 SLP985 T00281050
KSEG 242153Z AUTO 27008KT 10SM CLR 04/M04 A2944 RMK AO2 SLP974 T00391044
KSEG 242053Z AUTO VRB06KT 10SM CLR 05/M03 A2943 RMK AO2 SLP967 T00501028 55013
KSEG 241953Z AUTO 30010KT 10SM CLR 05/M02 A2941 RMK AO2 SLP962 T00501022
KSEG 241905Z AUTO VRB03KT 4SM HZ SCT021 03/00 A2942 RMK AO2 T00280000
KSEG 241853Z AUTO 00000KT 3SM HZ BKN017 BKN022 03/00 A2943 RMK AO2 SLP970 T00280000
KSEG 241844Z AUTO 00000KT 4SM HZ FEW011 BKN019 BKN023 03/00 A2944 RMK AO2 T00280000
KSEG 241809Z AUTO VRB03KT 3SM BR BKN010 02/00 A2946 RMK AO2 CIG 007V012 T00220000
KSEG 241753Z AUTO 17004KT 2SM BR OVC008 01/00 A2946 RMK AO2 CIG 005V010 SLP981 60002 T00110000 10011 21006 58029
KSEG 241721Z AUTO 00000KT 2SM BR BKN006 OVC047 01/M01 A2949 RMK AO2 T00111006
KSEG 241710Z AUTO 00000KT 1 3/4SM BR BKN008 OVC047 01/00 A2949 RMK AO2 PRESFR T00060000
KSEG 241700Z AUTO 00000KT 1 3/4SM BR SCT009 OVC047 01/M01 A2951 RMK AO2 T00061006
KSEG 241653Z AUTO 00000KT 2SM BR FEW009 OVC045 01/M01 A2952 RMK AO2 SNE33 SLP000 P0001 T00111006
KSEG 241632Z AUTO 00000KT 1 1/4SM -SN BR FEW009 SCT022 OVC041 01/M01 A2953 RMK AO2 P0001 T00061006
KSEG 241628Z AUTO 00000KT 1SM -SN BR FEW007 BKN025 OVC043 01/M01 A2953 RMK AO2 P0001 T00061006
KSEG 241601Z AUTO 34004KT 3/4SM -SN BR SCT007 OVC015 01/M01 A2955 RMK AO2 P0000 T00061011
KSEG 241553Z AUTO 33004KT 1 1/2SM -SN BR SCT007 OVC017 01/M01 A2955 RMK AO2 SLP011 P0000 T00061011
KSEG 241549Z AUTO 36003KT 1 1/2SM -SN BR SCT007 OVC017 01/M01 A2955 RMK AO2 P0000
KSEG 241542Z AUTO 02004KT 1 1/2SM -SN BR BKN007 OVC016 01/M01 A2955 RMK AO2 P0000 T00061011
KSEG 241518Z AUTO 32004KT 1 1/4SM -SN BR SCT008 OVC015 01/M01 A2956 RMK AO2 P0000 T00061011
KSEG 241510Z AUTO 35005KT 1SM -SN BR FEW008 BKN014 OVC041 01/M01 A2956 RMK AO2 P0000 T00061011
KSEG 241453Z AUTO 34004KT 1 1/4SM -SN BR SCT005 BKN014 OVC041 01/M01 A2956 RMK AO2 UPB24E26B43E44SNE24B42E43B44 SLP015 P0001 60001 T00061011 56020
KSEG 241450Z AUTO 34004KT 1 1/2SM -SN BR SCT005 BKN014 OVC041 01/M01 A2957 RMK AO2 UPB24E26B43E44SNE24B42E43B44 P0001
KSEG 241439Z AUTO 34003KT 1 1/2SM BR BKN005 OVC015 00/M01 A2957 RMK AO2 UPB24E26SNE24 P0000 T00001011
KSEG 241423Z AUTO 00000KT 1 1/4SM -SN BR SCT005 BKN015 OVC026 00/M01 A2957 RMK AO2 P0000 T00001011
KSEG 241412Z AUTO 00000KT 1 1/4SM -SN BR FEW015 BKN026 OVC035 00/M01 A2958 RMK AO2 P0000 T00001011
KSEG 241403Z AUTO 00000KT 1 1/4SM -SN BR BKN030 OVC039 00/M01 A2959 RMK AO2 P0000 T00001011
KSEG 241353Z AUTO 33004KT 1SM -SN BR BKN030 BKN037 OVC050 00/M01 A2958 RMK AO2 UPB29E35SNE27B35 SLP021 P0000 T00001011
KSEG 241339Z AUTO 34005KT 1 1/4SM -SN BR FEW018 BKN042 OVC050 00/M01 A2957 RMK AO2 UPB29E35SNE27B35 P0000 T00001011
KSEG 241253Z AUTO 00000KT 1 1/2SM -SN BR BKN018 OVC027 M01/M01 A2962 RMK AO2 SLP035 P0000 T10061011
KSEG 241153Z AUTO 00000KT 1 1/4SM -SN BR FEW007 OVC021 00/M01 A2966 RMK AO2 SLP047 P0001 60017 70029 T00001006 10000 20000 55009
KSEG 241149Z AUTO 00000KT 1 1/4SM -SN BR SCT007 OVC019 00/M01 A2965 RMK AO2 P0001
KSEG 241113Z AUTO 00000KT 1 1/2SM -SN BR BKN006 BKN014 OVC039 00/M01 A2966 RMK AO2 P0000 T00001011
KSEG 241053Z AUTO 00000KT 1 1/2SM -SN BR FEW007 BKN019 OVC042 00/M01 A2966 RMK AO2 SLP049 P0000 T00001011
KSEG 241040Z AUTO 36003KT 1 3/4SM -SN BR FEW005 BKN035 OVC042 00/M01 A2966 RMK AO2 P0000 T00001011
KSEG 241031Z AUTO 35003KT 1 3/4SM -SN BR SCT034 OVC043 00/M01 A2967 RMK AO2 P0000 T00001011
KSEG 241017Z AUTO 35003KT 1 3/4SM -SN BR SCT004 BKN027 OVC039 00/M01 A2967 RMK AO2 P0000 T00001011
KSEG 240953Z AUTO 00000KT 1 1/2SM -SN BR OVC006 00/M01 A2969 RMK AO2 SLP057 P0001 T00001011
KSEG 240943Z AUTO 00000KT 1 1/2SM -SN BR OVC006 00/M01 A2969 RMK AO2 CIG 004V007 P0001 T00001006
KSEG 240907Z AUTO 00000KT 1 1/2SM -SN BR BKN004 OVC014 00/M01 A2971 RMK AO2 P0000 T00001006
KSEG 240853Z AUTO 00000KT 1SM -SN BR OVC004 00/M01 A2972 RMK AO2 SLP068 P0003 60015 T00001006 58032
KSEG 240849Z AUTO 00000KT 1SM -SN BR OVC004 00/M01 A2972 RMK AO2 P0003
KSEG 240838Z AUTO 00000KT 3/4SM -SN BR BKN005 OVC010 00/M01 A2973 RMK AO2 P0003 T00001006
KSEG 240812Z AUTO 01003KT 1SM -SN BR BKN005 OVC010 00/M01 A2975 RMK AO2 PRESFR P0001 T00001006
KSEG 240753Z AUTO 35003KT 3/4SM -SN BR SCT005 BKN010 OVC023 00/M01 A2978 RMK AO2 SLP088 P0005 T00001006
KSEG 240659Z AUTO 00000KT 1/2SM SN FG SCT003 OVC007 00/M01 A2981 RMK AO2 P0000 T00001006
KSEG 240653Z AUTO 00000KT 1/2SM SN FG VV004 00/M01 A2982 RMK AO2 SLP101 P0007 T00001006
KSEG 240626Z AUTO 00000KT 3/4SM -SN BR BKN005 OVC008 00/M01 A2983 RMK AO2 P0003 T00001006
KSEG 240553Z AUTO 00000KT 3/4SM -SN BR OVC003 00/M01 A2986 RMK AO2 SLP114 P0006 60012 T00001006 10017 20000 58038
KSEG 240453Z AUTO 00000KT 3/4SM -SN BR VV004 01/M01 A2989 RMK AO2 PRESFR SLP126 P0006 T00061006 400221017
KSEG 240444Z AUTO 00000KT 3/4SM -SN BR FEW003 OVC007 01/M01 A2990 RMK AO2 P0005 T00061006
KSEG 240429Z AUTO 00000KT 3/4SM -SN BR FEW003 OVC013 01/M01 A2992 RMK AO2 P0003 T00061006
KSEG 240425Z AUTO 00000KT 1SM -SN BR VV015 01/M01 A2992 RMK AO2 P0002 T00061006
KSEG 240353Z AUTO 19007KT 1 1/2SM -SN OVC025 01/M02 A2994 RMK AO2 SNB37 SLP144 P0000 T00111017
KSEG 240349Z AUTO 19005KT 1 3/4SM -SN OVC029 01/M02 A2995 RMK AO2 SNB37 P0000
KSEG 240253Z AUTO 00000KT 9SM OVC075 02/M03 A2997 RMK AO2 SLP153 T00171028 56028
KSEG 240153Z AUTO 00000KT 8SM OVC095 02/M03 A2999 RMK AO2 SLP161 T00171033
KSEG 240053Z AUTO 18004KT 8SM OVC110 02/M03 A3002 RMK AO2 SLP170 T00171033
KSEG 232353Z AUTO 19003KT 8SM CLR 02/M03 A3005 RMK AO2 SLP182 T00171033 10022 20006 58021
KSEG 232253Z AUTO 00000KT 9SM CLR 02/M04 A3008 RMK AO2 SLP189 T00171039